sensor_id;sensor_type;location;lat;lon;timestamp;pressure;altitude;pressure_sealevel;temperature;humidity
17936;BME280;9093;52.062;4.508;2022-09-29T00:00:34;100281.34;;;10.05;84.74
17936;BME280;9093;52.062;4.508;2022-09-29T00:03:15;100276.75;;;10.07;85.01
17936;BME280;9093;52.062;4.508;2022-09-29T00:05:56;100276.00;;;10.05;84.93
17936;BME280;9093;52.062;4.508;2022-09-29T00:08:37;100280.47;;;10.04;84.87
17936;BME280;9093;52.062;4.508;2022-09-29T00:11:18;100277.91;;;10.03;84.73
17936;BME280;9093;52.062;4.508;2022-09-29T00:13:58;100279.63;;;10.04;85.01
17936;BME280;9093;52.062;4.508;2022-09-29T00:16:38;100283.22;;;10.03;84.82
17936;BME280;9093;52.062;4.508;2022-09-29T00:19:19;100269.97;;;10.01;84.67
17936;BME280;9093;52.062;4.508;2022-09-29T00:21:59;100273.72;;;9.99;84.87
17936;BME280;9093;52.062;4.508;2022-09-29T00:24:40;100279.03;;;9.99;84.80
17936;BME280;9093;52.062;4.508;2022-09-29T00:27:21;100282.66;;;9.98;84.75
17936;BME280;9093;52.062;4.508;2022-09-29T00:30:01;100278.28;;;9.97;84.85
17936;BME280;9093;52.062;4.508;2022-09-29T00:32:41;100281.72;;;9.99;84.72
17936;BME280;9093;52.062;4.508;2022-09-29T00:35:22;100276.38;;;9.99;84.72
17936;BME280;9093;52.062;4.508;2022-09-29T00:38:02;100276.38;;;9.99;84.61
17936;BME280;9093;52.062;4.508;2022-09-29T00:40:42;100275.59;;;9.97;84.68
17936;BME280;9093;52.062;4.508;2022-09-29T00:49:43;100278.28;;;9.97;84.48
17936;BME280;9093;52.062;4.508;2022-09-29T00:52:34;100278.28;;;9.97;84.75
17936;BME280;9093;52.062;4.508;2022-09-29T00:58:13;100278.44;;;9.94;84.66
17936;BME280;9093;52.062;4.508;2022-09-29T01:00:54;100273.31;;;9.91;84.48
17936;BME280;9093;52.062;4.508;2022-09-29T01:03:39;100271.75;;;9.87;84.63
17936;BME280;9093;52.062;4.508;2022-09-29T01:06:38;100273.69;;;9.85;84.65
17936;BME280;9093;52.062;4.508;2022-09-29T01:09:23;100272.81;;;9.84;84.54
17936;BME280;9093;52.062;4.508;2022-09-29T01:12:05;100273.69;;;9.85;84.41
17936;BME280;9093;52.062;4.508;2022-09-29T01:14:46;100272.81;;;9.84;84.64
17936;BME280;9093;52.062;4.508;2022-09-29T01:17:27;100275.56;;;9.83;84.45
17936;BME280;9093;52.062;4.508;2022-09-29T01:20:14;100270.22;;;9.83;84.52
17936;BME280;9093;52.062;4.508;2022-09-29T01:26:20;100264.91;;;9.83;84.53
17936;BME280;9093;52.062;4.508;2022-09-29T01:32:51;100273.84;;;9.82;84.72
17936;BME280;9093;52.062;4.508;2022-09-29T01:35:56;100264.03;;;9.82;84.58
17936;BME280;9093;52.062;4.508;2022-09-29T01:44:56;100270.06;;;9.86;84.39
17936;BME280;9093;52.062;4.508;2022-09-29T01:47:42;100260.06;;;9.89;84.47
17936;BME280;9093;52.062;4.508;2022-09-29T01:50:28;100264.44;;;9.90;84.50
17936;BME280;9093;52.062;4.508;2022-09-29T01:53:15;100273.97;;;9.94;84.49
17936;BME280;9093;52.062;4.508;2022-09-29T01:56:17;100269.31;;;9.98;84.41
17936;BME280;9093;52.062;4.508;2022-09-29T01:59:35;100273.88;;;9.96;84.38
17936;BME280;9093;52.062;4.508;2022-09-29T02:02:31;100270.28;;;9.97;84.48
17936;BME280;9093;52.062;4.508;2022-09-29T02:08:31;100275.88;;;9.92;84.35
17936;BME280;9093;52.062;4.508;2022-09-29T02:11:12;100273.31;;;9.91;84.36
17936;BME280;9093;52.062;4.508;2022-09-29T02:16:48;100274.53;;;9.85;84.66
17936;BME280;9093;52.062;4.508;2022-09-29T02:19:31;100262.31;;;9.81;84.47
17936;BME280;9093;52.062;4.508;2022-09-29T02:22:13;100271.25;;;9.80;84.79
17936;BME280;9093;52.062;4.508;2022-09-29T02:24:54;100272.31;;;9.78;84.32
17936;BME280;9093;52.062;4.508;2022-09-29T02:27:38;100272.50;;;9.75;84.43
17936;BME280;9093;52.062;4.508;2022-09-29T02:30:19;100281.47;;;9.74;84.52
17936;BME280;9093;52.062;4.508;2022-09-29T02:32:59;100276.28;;;9.71;84.53
17936;BME280;9093;52.062;4.508;2022-09-29T02:35:50;100275.63;;;9.67;84.46
17936;BME280;9093;52.062;4.508;2022-09-29T02:38:54;100272.19;;;9.65;84.58
17936;BME280;9093;52.062;4.508;2022-09-29T02:45:03;100269.81;;;9.60;84.49
17936;BME280;9093;52.062;4.508;2022-09-29T02:54:40;100273.94;;;9.50;84.35
17936;BME280;9093;52.062;4.508;2022-09-29T02:57:30;100272.22;;;9.49;84.72
17936;BME280;9093;52.062;4.508;2022-09-29T03:00:15;100277.66;;;9.48;84.59
17936;BME280;9093;52.062;4.508;2022-09-29T03:02:56;100270.69;;;9.45;84.44
17936;BME280;9093;52.062;4.508;2022-09-29T03:05:36;100277.03;;;9.43;84.57
17936;BME280;9093;52.062;4.508;2022-09-29T03:08:19;100281.50;;;9.42;84.68
17936;BME280;9093;52.062;4.508;2022-09-29T03:10:59;100281.69;;;9.39;84.66
17936;BME280;9093;52.062;4.508;2022-09-29T03:13:40;100287.19;;;9.36;84.47
17936;BME280;9093;52.062;4.508;2022-09-29T03:16:20;100284.53;;;9.36;84.64
17936;BME280;9093;52.062;4.508;2022-09-29T03:19:01;100289.97;;;9.35;84.33
17936;BME280;9093;52.062;4.508;2022-09-29T03:21:41;100285.66;;;9.32;84.35
17936;BME280;9093;52.062;4.508;2022-09-29T03:24:21;100292.72;;;9.33;84.61
17936;BME280;9093;52.062;4.508;2022-09-29T03:27:02;100289.25;;;9.31;84.64
17936;BME280;9093;52.062;4.508;2022-09-29T03:29:43;100300.09;;;9.28;84.30
17936;BME280;9093;52.062;4.508;2022-09-29T03:32:24;100289.63;;;9.25;84.59
17936;BME280;9093;52.062;4.508;2022-09-29T03:35:04;100300.28;;;9.25;84.59
17936;BME280;9093;52.062;4.508;2022-09-29T03:37:45;100291.53;;;9.23;84.77
17936;BME280;9093;52.062;4.508;2022-09-29T03:40:26;100288.94;;;9.21;84.44
17936;BME280;9093;52.062;4.508;2022-09-29T03:43:07;100297.19;;;9.17;84.65
17936;BME280;9093;52.062;4.508;2022-09-29T03:45:48;100298.16;;;9.16;84.77
17936;BME280;9093;52.062;4.508;2022-09-29T03:48:29;100295.56;;;9.14;84.36
17936;BME280;9093;52.062;4.508;2022-09-29T03:51:10;100304.75;;;9.09;84.65
17936;BME280;9093;52.062;4.508;2022-09-29T03:53:50;100309.38;;;9.05;84.58
17936;BME280;9093;52.062;4.508;2022-09-29T03:56:30;100301.84;;;8.98;84.59
17936;BME280;9093;52.062;4.508;2022-09-29T03:59:11;100304.50;;;8.98;85.00
17936;BME280;9093;52.062;4.508;2022-09-29T04:01:51;100305.53;;;8.95;84.53
17936;BME280;9093;52.062;4.508;2022-09-29T04:04:31;100312.81;;;8.92;84.82
17936;BME280;9093;52.062;4.508;2022-09-29T04:07:12;100305.94;;;8.87;84.68
17936;BME280;9093;52.062;4.508;2022-09-29T04:09:52;100313.94;;;8.87;84.70
17936;BME280;9093;52.062;4.508;2022-09-29T04:12:32;100306.28;;;8.81;84.80
17936;BME280;9093;52.062;4.508;2022-09-29T04:15:12;100308.16;;;8.79;84.80
17936;BME280;9093;52.062;4.508;2022-09-29T04:17:53;100307.41;;;8.77;84.80
17936;BME280;9093;52.062;4.508;2022-09-29T04:20:37;100310.06;;;8.77;84.98
17936;BME280;9093;52.062;4.508;2022-09-29T04:23:17;100317.25;;;8.75;84.88
17936;BME280;9093;52.062;4.508;2022-09-29T04:25:58;100313.06;;;8.71;84.84
17936;BME280;9093;52.062;4.508;2022-09-29T04:28:38;100314.00;;;8.70;84.68
17936;BME280;9093;52.062;4.508;2022-09-29T04:31:18;100317.84;;;8.65;84.65
17936;BME280;9093;52.062;4.508;2022-09-29T04:33:59;100314.50;;;8.61;84.74
17936;BME280;9093;52.062;4.508;2022-09-29T04:36:40;100332.19;;;8.62;84.98
17936;BME280;9093;52.062;4.508;2022-09-29T04:39:20;100333.22;;;8.60;84.76
17936;BME280;9093;52.062;4.508;2022-09-29T04:42:00;100332.50;;;8.56;84.95
17936;BME280;9093;52.062;4.508;2022-09-29T04:44:40;100332.34;;;8.59;84.88
17936;BME280;9093;52.062;4.508;2022-09-29T04:47:21;100330.63;;;8.58;84.76
17936;BME280;9093;52.062;4.508;2022-09-29T04:50:01;100331.66;;;8.56;84.89
17936;BME280;9093;52.062;4.508;2022-09-29T04:52:42;100343.16;;;8.56;84.80
17936;BME280;9093;52.062;4.508;2022-09-29T04:55:22;100336.81;;;8.59;85.06
17936;BME280;9093;52.062;4.508;2022-09-29T04:58:03;100347.59;;;8.56;84.66
17936;BME280;9093;52.062;4.508;2022-09-29T05:00:43;100350.19;;;8.57;84.85
17936;BME280;9093;52.062;4.508;2022-09-29T05:03:24;100347.34;;;8.60;84.87
17936;BME280;9093;52.062;4.508;2022-09-29T05:06:08;100347.28;;;8.62;84.52
17936;BME280;9093;52.062;4.508;2022-09-29T05:08:49;100355.34;;;8.60;84.52
17936;BME280;9093;52.062;4.508;2022-09-29T05:11:29;100360.06;;;8.55;84.57
17936;BME280;9093;52.062;4.508;2022-09-29T05:14:10;100360.84;;;8.57;84.49
17936;BME280;9093;52.062;4.508;2022-09-29T05:16:53;100367.88;;;8.58;84.59
17936;BME280;9093;52.062;4.508;2022-09-29T05:19:33;100368.97;;;8.54;84.49
17936;BME280;9093;52.062;4.508;2022-09-29T05:22:14;100366.31;;;8.54;84.51
17936;BME280;9093;52.062;4.508;2022-09-29T05:24:54;100365.44;;;8.54;84.45
17936;BME280;9093;52.062;4.508;2022-09-29T05:27:35;100368.03;;;8.55;84.69
17936;BME280;9093;52.062;4.508;2022-09-29T05:30:16;100370.69;;;8.55;84.63
17936;BME280;9093;52.062;4.508;2022-09-29T05:32:56;100374.22;;;8.56;84.46
17936;BME280;9093;52.062;4.508;2022-09-29T05:35:37;100372.66;;;8.52;84.31
17936;BME280;9093;52.062;4.508;2022-09-29T05:38:17;100382.91;;;8.42;84.53
17936;BME280;9093;52.062;4.508;2022-09-29T05:40:57;100382.38;;;8.35;84.53
17936;BME280;9093;52.062;4.508;2022-09-29T05:43:38;100381.38;;;8.38;84.55
17936;BME280;9093;52.062;4.508;2022-09-29T05:46:20;100384.81;;;8.40;84.54
17936;BME280;9093;52.062;4.508;2022-09-29T05:49:01;100387.38;;;8.41;84.56
17936;BME280;9093;52.062;4.508;2022-09-29T05:51:41;100384.81;;;8.40;84.65
17936;BME280;9093;52.062;4.508;2022-09-29T05:54:21;100393.56;;;8.42;84.21
17936;BME280;9093;52.062;4.508;2022-09-29T05:57:03;100391.69;;;8.44;84.59
17936;BME280;9093;52.062;4.508;2022-09-29T05:59:43;100399.34;;;8.50;84.52
17936;BME280;9093;52.062;4.508;2022-09-29T06:02:23;100386.03;;;8.50;84.23
17936;BME280;9093;52.062;4.508;2022-09-29T06:05:04;100396.53;;;8.53;84.29
17936;BME280;9093;52.062;4.508;2022-09-29T06:07:44;100387.44;;;8.57;84.03
17936;BME280;9093;52.062;4.508;2022-09-29T06:10:27;100388.22;;;8.59;84.17
17936;BME280;9093;52.062;4.508;2022-09-29T06:13:07;100387.38;;;8.59;83.97
17936;BME280;9093;52.062;4.508;2022-09-29T06:15:47;100393.56;;;8.59;84.00
17936;BME280;9093;52.062;4.508;2022-09-29T06:18:31;100384.00;;;8.55;84.23
17936;BME280;9093;52.062;4.508;2022-09-29T06:21:15;100394.50;;;8.58;84.39
17936;BME280;9093;52.062;4.508;2022-09-29T06:23:56;100388.06;;;8.62;84.11
17936;BME280;9093;52.062;4.508;2022-09-29T06:26:37;100396.75;;;8.66;84.26
17936;BME280;9093;52.062;4.508;2022-09-29T06:29:17;100405.56;;;8.66;84.21
17936;BME280;9093;52.062;4.508;2022-09-29T06:31:57;100401.81;;;8.70;84.12
17936;BME280;9093;52.062;4.508;2022-09-29T06:34:38;100400.72;;;8.74;84.15
17936;BME280;9093;52.062;4.508;2022-09-29T06:37:39;100417.41;;;8.78;83.81
17936;BME280;9093;52.062;4.508;2022-09-29T06:40:23;100410.97;;;8.82;84.02
17936;BME280;9093;52.062;4.508;2022-09-29T06:43:06;100410.88;;;8.83;83.64
17936;BME280;9093;52.062;4.508;2022-09-29T06:45:46;100419.63;;;8.85;83.70
17936;BME280;9093;52.062;4.508;2022-09-29T06:48:26;100426.78;;;8.85;83.75
17936;BME280;9093;52.062;4.508;2022-09-29T06:51:08;100422.22;;;8.87;83.77
17936;BME280;9093;52.062;4.508;2022-09-29T06:53:49;100424.81;;;8.88;83.79
17936;BME280;9093;52.062;4.508;2022-09-29T06:56:29;100431.66;;;8.93;83.81
17936;BME280;9093;52.062;4.508;2022-09-29T06:59:10;100430.66;;;8.95;83.76
17936;BME280;9093;52.062;4.508;2022-09-29T07:01:50;100437.53;;;8.99;83.64
17936;BME280;9093;52.062;4.508;2022-09-29T07:04:30;100436.59;;;9.00;83.63
17936;BME280;9093;52.062;4.508;2022-09-29T07:07:10;100445.28;;;9.04;83.79
17936;BME280;9093;52.062;4.508;2022-09-29T07:09:51;100447.69;;;9.08;83.42
17936;BME280;9093;52.062;4.508;2022-09-29T07:12:31;100452.84;;;9.11;83.63
17936;BME280;9093;52.062;4.508;2022-09-29T07:15:12;100449.16;;;9.14;83.66
17936;BME280;9093;52.062;4.508;2022-09-29T07:17:52;100448.97;;;9.17;83.44
17936;BME280;9093;52.062;4.508;2022-09-29T07:20:34;100455.88;;;9.21;83.53
17936;BME280;9093;52.062;4.508;2022-09-29T07:23:14;100450.47;;;9.22;83.44
17936;BME280;9093;52.062;4.508;2022-09-29T07:25:54;100452.03;;;9.26;83.40
17936;BME280;9093;52.062;4.508;2022-09-29T07:28:35;100452.63;;;9.32;83.29
17936;BME280;9093;52.062;4.508;2022-09-29T07:31:18;100454.28;;;9.34;83.54
17936;BME280;9093;52.062;4.508;2022-09-29T07:33:59;100457.69;;;9.36;83.43
17936;BME280;9093;52.062;4.508;2022-09-29T07:36:39;100462.88;;;9.39;83.25
17936;BME280;9093;52.062;4.508;2022-09-29T07:39:19;100461.00;;;9.41;83.39
17936;BME280;9093;52.062;4.508;2022-09-29T07:42:01;100467.00;;;9.45;83.52
17936;BME280;9093;52.062;4.508;2022-09-29T07:44:42;100469.41;;;9.49;83.29
17936;BME280;9093;52.062;4.508;2022-09-29T07:47:22;100474.50;;;9.54;83.43
17936;BME280;9093;52.062;4.508;2022-09-29T07:50:03;100479.56;;;9.58;83.14
17936;BME280;9093;52.062;4.508;2022-09-29T07:52:44;100472.34;;;9.60;83.36
17936;BME280;9093;52.062;4.508;2022-09-29T07:55:24;100474.75;;;9.65;83.45
17936;BME280;9093;52.062;4.508;2022-09-29T07:58:07;100479.03;;;9.67;83.31
17936;BME280;9093;52.062;4.508;2022-09-29T08:00:54;100482.41;;;9.71;83.28
17936;BME280;9093;52.062;4.508;2022-09-29T08:03:36;100491.94;;;9.75;83.21
17936;BME280;9093;52.062;4.508;2022-09-29T08:06:18;100482.00;;;9.79;83.17
17936;BME280;9093;52.062;4.508;2022-09-29T08:09:00;100486.28;;;9.81;83.03
17936;BME280;9093;52.062;4.508;2022-09-29T08:11:42;100498.50;;;9.85;83.41
17936;BME280;9093;52.062;4.508;2022-09-29T08:14:22;100500.97;;;9.88;83.39
17936;BME280;9093;52.062;4.508;2022-09-29T08:17:03;100506.91;;;9.93;83.25
17936;BME280;9093;52.062;4.508;2022-09-29T08:19:43;100508.47;;;9.97;83.00
17936;BME280;9093;52.062;4.508;2022-09-29T08:22:26;100518.19;;;9.98;83.20
17936;BME280;9093;52.062;4.508;2022-09-29T08:25:07;100516.22;;;10.02;83.12
17936;BME280;9093;52.062;4.508;2022-09-29T08:27:47;100517.00;;;10.04;83.20
17936;BME280;9093;52.062;4.508;2022-09-29T08:30:28;100522.06;;;10.08;83.23
17936;BME280;9093;52.062;4.508;2022-09-29T08:33:09;100525.41;;;10.12;83.21
17936;BME280;9093;52.062;4.508;2022-09-29T08:35:57;100529.78;;;10.13;83.10
17936;BME280;9093;52.062;4.508;2022-09-29T08:38:38;100542.06;;;10.17;83.46
17936;BME280;9093;52.062;4.508;2022-09-29T08:44:44;100549.59;;;10.25;83.22
17936;BME280;9093;52.062;4.508;2022-09-29T08:47:34;100552.03;;;10.29;83.32
17936;BME280;9093;52.062;4.508;2022-09-29T08:53:00;100561.56;;;10.33;83.30
17936;BME280;9093;52.062;4.508;2022-09-29T08:55:49;100563.09;;;10.37;83.07
17936;BME280;9093;52.062;4.508;2022-09-29T08:58:35;100564.75;;;10.40;83.26
17936;BME280;9093;52.062;4.508;2022-09-29T09:13:32;100566.28;;;10.60;83.20
17936;BME280;9093;52.062;4.508;2022-09-29T09:16:40;100572.28;;;10.63;83.22
17936;BME280;9093;52.062;4.508;2022-09-29T09:22:57;100561.00;;;10.74;83.21
17936;BME280;9093;52.062;4.508;2022-09-29T09:25:40;100575.00;;;10.77;83.43
17936;BME280;9093;52.062;4.508;2022-09-29T09:28:35;100568.63;;;10.80;83.50
17936;BME280;9093;52.062;4.508;2022-09-29T09:31:23;100573.63;;;10.86;83.33
17936;BME280;9093;52.062;4.508;2022-09-29T09:34:30;100568.06;;;10.89;83.36
17936;BME280;9093;52.062;4.508;2022-09-29T09:37:24;100572.19;;;10.95;83.29
17936;BME280;9093;52.062;4.508;2022-09-29T09:40:15;100572.03;;;10.98;83.31
17936;BME280;9093;52.062;4.508;2022-09-29T09:43:09;100573.56;;;11.02;83.54
17936;BME280;9093;52.062;4.508;2022-09-29T09:45:56;100576.06;;;11.05;83.34
17936;BME280;9093;52.062;4.508;2022-09-29T09:49:20;100568.69;;;11.08;83.54
17936;BME280;9093;52.062;4.508;2022-09-29T09:52:10;100573.00;;;11.11;83.21
17936;BME280;9093;52.062;4.508;2022-09-29T09:54:54;100575.41;;;11.15;83.40
17936;BME280;9093;52.062;4.508;2022-09-29T10:00:32;100578.66;;;11.20;83.48
17936;BME280;9093;52.062;4.508;2022-09-29T10:03:15;100580.19;;;11.24;83.51
17936;BME280;9093;52.062;4.508;2022-09-29T10:05:55;100585.34;;;11.27;83.46
17936;BME280;9093;52.062;4.508;2022-09-29T10:08:38;100583.44;;;11.29;83.39
17936;BME280;9093;52.062;4.508;2022-09-29T10:11:26;100581.56;;;11.32;83.39
17936;BME280;9093;52.062;4.508;2022-09-29T10:14:25;100582.13;;;11.37;83.64
17936;BME280;9093;52.062;4.508;2022-09-29T10:17:10;100582.88;;;11.39;83.65
17936;BME280;9093;52.062;4.508;2022-09-29T10:20:02;100579.06;;;11.43;83.59
17936;BME280;9093;52.062;4.508;2022-09-29T10:22:44;100579.81;;;11.45;83.55
17936;BME280;9093;52.062;4.508;2022-09-29T10:25:26;100586.81;;;11.47;83.47
17936;BME280;9093;52.062;4.508;2022-09-29T10:28:12;100589.38;;;11.49;83.78
17936;BME280;9093;52.062;4.508;2022-09-29T10:30:53;100589.97;;;11.54;83.63
17936;BME280;9093;52.062;4.508;2022-09-29T10:33:34;100593.19;;;11.59;83.48
17936;BME280;9093;52.062;4.508;2022-09-29T10:36:15;100589.28;;;11.64;83.71
17936;BME280;9093;52.062;4.508;2022-09-29T10:38:59;100594.53;;;11.66;83.38
17936;BME280;9093;52.062;4.508;2022-09-29T10:41:50;100586.34;;;11.69;83.54
17936;BME280;9093;52.062;4.508;2022-09-29T10:44:33;100596.84;;;11.72;83.58
17936;BME280;9093;52.062;4.508;2022-09-29T10:47:14;100598.38;;;11.76;83.25
17936;BME280;9093;52.062;4.508;2022-09-29T10:50:16;100599.72;;;11.83;83.40
17936;BME280;9093;52.062;4.508;2022-09-29T10:53:00;100596.66;;;11.89;83.49
17936;BME280;9093;52.062;4.508;2022-09-29T10:55:53;100600.88;;;11.93;83.16
17936;BME280;9093;52.062;4.508;2022-09-29T10:58:36;100600.59;;;11.98;83.34
17936;BME280;9093;52.062;4.508;2022-09-29T11:01:19;100607.34;;;12.03;83.22
17936;BME280;9093;52.062;4.508;2022-09-29T11:04:04;100604.50;;;12.06;83.20
17936;BME280;9093;52.062;4.508;2022-09-29T11:06:46;100599.50;;;12.15;83.29
17936;BME280;9093;52.062;4.508;2022-09-29T11:09:29;100604.06;;;12.27;83.09
17936;BME280;9093;52.062;4.508;2022-09-29T11:12:32;100599.28;;;12.32;82.99
17936;BME280;9093;52.062;4.508;2022-09-29T11:15:24;100608.06;;;12.34;83.00
17936;BME280;9093;52.062;4.508;2022-09-29T11:18:28;100612.47;;;12.35;82.88
17936;BME280;9093;52.062;4.508;2022-09-29T11:24:37;100614.00;;;12.39;83.12
17936;BME280;9093;52.062;4.508;2022-09-29T11:30:25;100615.97;;;12.49;83.18
17936;BME280;9093;52.062;4.508;2022-09-29T11:45:02;100630.84;;;12.95;82.51
17936;BME280;9093;52.062;4.508;2022-09-29T11:50:56;100629.63;;;13.13;82.34
17936;BME280;9093;52.062;4.508;2022-09-29T12:00:18;100631.41;;;13.39;81.95
17936;BME280;9093;52.062;4.508;2022-09-29T12:03:03;100635.38;;;13.46;81.99
17936;BME280;9093;52.062;4.508;2022-09-29T12:06:20;100639.88;;;13.58;81.96
17936;BME280;9093;52.062;4.508;2022-09-29T12:12:17;100641.72;;;13.71;81.82
17936;BME280;9093;52.062;4.508;2022-09-29T12:15:09;100638.81;;;13.74;82.00
17936;BME280;9093;52.062;4.508;2022-09-29T12:17:57;100638.38;;;13.80;81.87
17936;BME280;9093;52.062;4.508;2022-09-29T12:20:42;100634.53;;;13.84;81.89
17936;BME280;9093;52.062;4.508;2022-09-29T12:23:25;100638.78;;;13.86;81.95
17936;BME280;9093;52.062;4.508;2022-09-29T12:26:16;100644.81;;;13.90;82.00
17936;BME280;9093;52.062;4.508;2022-09-29T12:29:04;100645.44;;;13.93;81.94
17936;BME280;9093;52.062;4.508;2022-09-29T12:31:49;100653.31;;;13.96;82.07
17936;BME280;9093;52.062;4.508;2022-09-29T12:34:51;100651.25;;;14.00;82.09
17936;BME280;9093;52.062;4.508;2022-09-29T12:37:37;100642.00;;;14.04;82.17
17936;BME280;9093;52.062;4.508;2022-09-29T12:40:24;100654.44;;;14.05;82.15
17936;BME280;9093;52.062;4.508;2022-09-29T12:43:23;100655.31;;;14.05;82.39
17936;BME280;9093;52.062;4.508;2022-09-29T12:46:21;100647.38;;;14.04;82.56
17936;BME280;9093;52.062;4.508;2022-09-29T12:51:55;100653.94;;;14.00;82.70
17936;BME280;9093;52.062;4.508;2022-09-29T12:54:40;100655.13;;;13.96;82.80
17936;BME280;9093;52.062;4.508;2022-09-29T12:57:27;100654.47;;;13.92;83.07
17936;BME280;9093;52.062;4.508;2022-09-29T13:00:14;100657.28;;;13.91;83.20
17936;BME280;9093;52.062;4.508;2022-09-29T13:11:57;100660.78;;;13.79;83.74
17936;BME280;9093;52.062;4.508;2022-09-29T13:18:09;100663.47;;;13.79;83.91
17936;BME280;9093;52.062;4.508;2022-09-29T13:24:05;100673.78;;;13.85;83.84
17936;BME280;9093;52.062;4.508;2022-09-29T13:29:47;100675.63;;;13.97;83.44
17936;BME280;9093;52.062;4.508;2022-09-29T13:32:29;100667.88;;;14.05;83.15
17936;BME280;9093;52.062;4.508;2022-09-29T13:35:15;100673.56;;;14.13;82.97
17936;BME280;9093;52.062;4.508;2022-09-29T13:38:02;100672.28;;;14.19;83.08
17936;BME280;9093;52.062;4.508;2022-09-29T13:41:16;100667.97;;;14.29;83.05
17936;BME280;9093;52.062;4.508;2022-09-29T13:46:43;100670.78;;;14.40;82.38
17936;BME280;9093;52.062;4.508;2022-09-29T13:49:26;100672.59;;;14.39;82.35
17936;BME280;9093;52.062;4.508;2022-09-29T13:54:51;100678.94;;;14.38;82.54
17936;BME280;9093;52.062;4.508;2022-09-29T13:57:31;100680.41;;;14.42;82.56
17936;BME280;9093;52.062;4.508;2022-09-29T14:00:16;100686.88;;;14.53;82.64
17936;BME280;9093;52.062;4.508;2022-09-29T14:03:03;100689.41;;;14.67;82.29
17936;BME280;9093;52.062;4.508;2022-09-29T14:05:45;100692.38;;;14.75;81.86
17936;BME280;9093;52.062;4.508;2022-09-29T14:08:30;100691.06;;;14.80;81.92
17936;BME280;9093;52.062;4.508;2022-09-29T14:11:36;100693.94;;;14.90;81.77
17936;BME280;9093;52.062;4.508;2022-09-29T14:14:22;100694.81;;;14.91;81.45
17936;BME280;9093;52.062;4.508;2022-09-29T14:17:06;100694.69;;;14.92;81.44
17936;BME280;9093;52.062;4.508;2022-09-29T14:20:15;100692.72;;;14.94;81.76
17936;BME280;9093;52.062;4.508;2022-09-29T14:23:02;100692.28;;;15.00;81.70
17936;BME280;9093;52.062;4.508;2022-09-29T14:28:31;100698.44;;;15.13;81.55
17936;BME280;9093;52.062;4.508;2022-09-29T14:31:19;100700.22;;;15.25;81.32
17936;BME280;9093;52.062;4.508;2022-09-29T14:34:02;100706.00;;;15.32;81.04
17936;BME280;9093;52.062;4.508;2022-09-29T14:36:43;100705.63;;;15.37;80.76
17936;BME280;9093;52.062;4.508;2022-09-29T14:39:26;100707.34;;;15.38;81.11
17936;BME280;9093;52.062;4.508;2022-09-29T14:42:15;100709.31;;;15.36;81.21
17936;BME280;9093;52.062;4.508;2022-09-29T14:44:56;100709.53;;;15.33;81.24
17936;BME280;9093;52.062;4.508;2022-09-29T14:48:15;100712.34;;;15.31;81.53
17936;BME280;9093;52.062;4.508;2022-09-29T14:51:26;100714.31;;;15.29;81.72
17936;BME280;9093;52.062;4.508;2022-09-29T14:58:06;100727.63;;;15.30;81.63
17936;BME280;9093;52.062;4.508;2022-09-29T15:01:05;100732.53;;;15.37;81.72
17936;BME280;9093;52.062;4.508;2022-09-29T15:03:50;100730.13;;;15.45;81.46
17936;BME280;9093;52.062;4.508;2022-09-29T15:06:31;100735.91;;;15.51;81.33
17936;BME280;9093;52.062;4.508;2022-09-29T15:09:16;100740.25;;;15.54;81.49
17936;BME280;9093;52.062;4.508;2022-09-29T15:11:56;100750.16;;;15.53;81.54
17936;BME280;9093;52.062;4.508;2022-09-29T15:14:41;100751.72;;;15.56;81.55
17936;BME280;9093;52.062;4.508;2022-09-29T15:17:56;100749.03;;;15.56;81.67
17936;BME280;9093;52.062;4.508;2022-09-29T15:20:52;100757.13;;;15.56;81.65
17936;BME280;9093;52.062;4.508;2022-09-29T15:27:03;100759.81;;;15.56;81.44
17936;BME280;9093;52.062;4.508;2022-09-29T15:29:46;100760.81;;;15.55;81.61
17936;BME280;9093;52.062;4.508;2022-09-29T15:32:29;100756.38;;;15.54;81.62
17936;BME280;9093;52.062;4.508;2022-09-29T15:35:12;100762.75;;;15.53;81.48
17936;BME280;9093;52.062;4.508;2022-09-29T15:40:56;100762.22;;;15.48;81.66
17936;BME280;9093;52.062;4.508;2022-09-29T15:43:43;100762.31;;;15.46;81.61
17936;BME280;9093;52.062;4.508;2022-09-29T15:46:38;100775.50;;;15.49;81.61
17936;BME280;9093;52.062;4.508;2022-09-29T15:49:22;100774.91;;;15.46;81.41
17936;BME280;9093;52.062;4.508;2022-09-29T15:52:05;100783.84;;;15.46;81.40
17936;BME280;9093;52.062;4.508;2022-09-29T15:54:46;100783.94;;;15.45;81.49
17936;BME280;9093;52.062;4.508;2022-09-29T15:57:31;100781.59;;;15.40;81.44
17936;BME280;9093;52.062;4.508;2022-09-29T16:03:24;100786.59;;;15.34;81.46
17936;BME280;9093;52.062;4.508;2022-09-29T16:06:13;100792.41;;;15.27;81.51
17936;BME280;9093;52.062;4.508;2022-09-29T16:09:03;100793.63;;;15.23;81.71
17936;BME280;9093;52.062;4.508;2022-09-29T16:11:45;100800.28;;;15.18;81.61
17936;BME280;9093;52.062;4.508;2022-09-29T16:14:26;100802.81;;;15.08;81.80
17936;BME280;9093;52.062;4.508;2022-09-29T16:17:07;100795.31;;;15.01;81.93
17936;BME280;9093;52.062;4.508;2022-09-29T16:19:48;100812.63;;;14.97;81.86
17936;BME280;9093;52.062;4.508;2022-09-29T16:22:28;100810.41;;;14.91;82.00
17936;BME280;9093;52.062;4.508;2022-09-29T16:25:20;100806.53;;;14.82;82.07
17936;BME280;9093;52.062;4.508;2022-09-29T16:28:02;100817.81;;;14.74;82.08
17936;BME280;9093;52.062;4.508;2022-09-29T16:31:00;100823.22;;;14.62;82.31
17936;BME280;9093;52.062;4.508;2022-09-29T16:33:43;100821.19;;;14.53;82.66
17936;BME280;9093;52.062;4.508;2022-09-29T16:36:26;100817.22;;;14.45;82.68
17936;BME280;9093;52.062;4.508;2022-09-29T16:39:14;100828.47;;;14.38;82.71
17936;BME280;9093;52.062;4.508;2022-09-29T16:41:57;100840.47;;;14.32;82.73
17936;BME280;9093;52.062;4.508;2022-09-29T16:44:41;100842.81;;;14.24;82.76
17936;BME280;9093;52.062;4.508;2022-09-29T16:47:27;100845.06;;;14.18;82.83
17936;BME280;9093;52.062;4.508;2022-09-29T16:50:12;100842.81;;;14.12;82.90
17936;BME280;9093;52.062;4.508;2022-09-29T16:52:53;100854.84;;;14.06;82.90
17936;BME280;9093;52.062;4.508;2022-09-29T16:55:33;100852.56;;;14.00;82.95